Accueil
METAR-TAF:

METAR-TAF

Aéroports :

La Paz, Mexique

latitude: 24-04N, longitude: 110-22W, altitude: 21 m

Observation

Le bulletin a été fait il y a 58 minutes, à 21:41 UTC
Vent 11 kt de nord-est
Température 32°C
Humidité 32%
Pression 1013 hPa
Visibilité: 16.1 km
Ciel clair

METAR: MMLP 232141Z 04011KT 10SM SKC 32/13 A2990

Heure: 16:39 (22:39 UTC)

Prévision

Le bulletin a été fait il y a 5 heures et 45 minutes, à 16:54 UTC
Prévision valable du 23 à 18 UTC au 24 à 18 UTC
Vent 15 kt de nord-est
Visibilité: 10 km
Ciel clair
A partir de 24 à 0300 UTC
Vent kt de nord
Visibilité: 10 km
Ciel clair
A partir de 24 à 1600 UTC
Vent 15 kt de nord/nord-est
Visibilité: 10 km
Ciel clair

TAF: MMLP 231654Z 2318/2418 04015KT P6SM SKC FM240300 00000KT P6SM SKC FM241600 03015KT P6SM SKC

Observations et prévisions météorologiques de plus de 4000 aéroports (messages METAR et TAF).

Les stations disponibles sont représentées par des disques jaunes et rouges sur la carte.

Passer la souris dessus pour voir le nom de la station.

Cliquer dessus pour voir les observations et prévisions météorologiques.

Pour changer de carte: cliquez sur les boutons verts avec une croix noire pour zoomer, sur le bouton vert avec un tiret pour effectuer un zoom arrière, ou sur les flèches vertes pour les cartes adjacentes.


METAR-TAF: